首页
METAR-TAF:

METAR-TAF

机场 :

凱爾索, 华盛顿, 美国

纬度: 46-07N, 经度: 122-54W, 海拔: 5米

当前天气观测

该预报发布于35分钟前的02:56 UTC
风速5节,风向北转西北
温度 16°C
湿度 55%
气压 1019 hPa
能見度: 16.1公里
阴天层高于6000英尺

METAR: KKLS 010256Z AUTO 34005KT 10SM OVC060 16/07 A3010 RMK AO2 SLP197 T01560072 56008

时间: 20:31 (03:31 UTC)


TAF: 丢失

超过4000个机场的气象观测和天气预报(METAR&TAF报告)。

可查询的气象台以黄色和红色小点在地图上表示。

将鼠标移到小点上方,可查看气象台名称。

然后点击查看天气观测和预报。

如需切换地图:点击带黑十字的绿色按钮放大地图;点击带横线的绿色按钮缩小地图;或者点击绿色箭头查看邻近地区的地图。


METAR-TAF: